Time;durP1;ratioP1;P1;durP2;ratioP2;P2;SDS_P1;SDS_P2;PMS_P1;PMS_P2;Temp;Humidity;BMP_temperature;BMP_pressure;BME280_temperature;BME280_humidity;BME280_pressure;Samples;Min_cycle;Max_cycle;Signal;HPM_P1;HPM_P2
2023/05/28 00:01:07;;;;;;;;;;;;;;;;;;5052452;28;19904;-47
2023/05/28 00:03:35;;;;;;;;;;;;;;;;;;5052399;28;20345;-49
2023/05/28 00:06:01;;;;;;;;;;;;;;;;;;5052003;28;19908;-52
2023/05/28 00:08:27;;;;;;;;;;;;;;;;;;5052250;28;19951;-47
2023/05/28 00:10:59;;;;;;;;;;;;;;;;;;5050829;28;20319;-48
2023/05/28 00:13:25;;;;;;;;;;;;;;;;;;5050952;28;19905;-48
2023/05/28 00:15:51;;;;;;;;;;;;;;;;;;5052196;28;19927;-50
2023/05/28 00:18:17;;;;;;;;;;;;;;;;;;5052078;28;20261;-46
2023/05/28 00:20:43;;;;;;;;;;;;;;;;;;5052083;28;19909;-50
2023/05/28 00:23:09;;;;;;;;;;;;;;;;;;5051108;28;19976;-46
2023/05/28 00:25:35;;;;;;;;;;;;;;;;;;5051950;28;19940;-53
2023/05/28 00:28:01;;;;;;;;;;;;;;;;;;5052141;28;19946;-47
2023/05/28 00:30:27;;;;;;;;;;;;;;;;;;5052142;28;20333;-50
2023/05/28 00:32:52;;;;;;;;;;;;;;;;;;5050775;28;19901;-49
2023/05/28 00:35:18;;;;;;;;;;;;;;;;;;5051939;28;20034;-50
2023/05/28 00:37:44;;;;;;;;;;;;;;;;;;5051898;28;19954;-48
2023/05/28 00:40:11;;;;;;;;;;;;;;;;;;5051663;28;20357;-50
2023/05/28 00:42:37;;;;;;;;;;;;;;;;;;5051803;28;19912;-53
2023/05/28 00:45:03;;;;;;;;;;;;;;;;;;5051780;28;19913;-52
2023/05/28 00:47:29;;;;;;;;;;;;;;;;;;5051792;28;20366;-46
2023/05/28 00:49:55;;;;;;;;;;;;;;;;;;5051798;28;19911;-51
2023/05/28 00:52:21;;;;;;;;;;;;;;;;;;5051690;28;19916;-47
2023/05/28 00:54:47;;;;;;;;;;;;;;;;;;5052010;28;20310;-49
2023/05/28 00:57:13;;;;;;;;;;;;;;;;;;5051840;28;19912;-48
2023/05/28 00:59:39;;;;;;;;;;;;;;;;;;5051692;28;20368;-48
2023/05/28 01:02:05;;;;;;;;;;;;;;;;;;5051647;28;19905;-52
2023/05/28 01:04:31;;;;;;;;;;;;;;;;;;5051505;28;20273;-50
2023/05/28 01:06:57;;;;;;;;;;;;;;;;;;5051642;28;19988;-50
2023/05/28 01:09:22;;;;;;;;;;;;;;;;;;5051467;28;19905;-47
2023/05/28 01:11:51;;;;;;;;;;;;;;;;;;5051479;28;19912;-51
2023/05/28 01:14:17;;;;;;;;;;;;;;;;;;5051584;28;19912;-53
2023/05/28 01:16:44;;;;;;;;;;;;;;;;;;5051908;28;19905;-50
2023/05/28 01:19:11;;;;;;;;;;;;;;;;;;5055373;28;19905;-50
2023/05/28 01:21:37;;;;;;;;;;;;;;;;;;5055407;28;19905;-51
2023/05/28 01:24:03;;;;;;;;;;;;;;;;;;5055240;28;19911;-51
2023/05/28 01:26:29;;;;;;;;;;;;;;;;;;5055449;28;19904;-48
2023/05/28 01:28:56;;;;;;;;;;;;;;;;;;5055224;28;19995;-51
2023/05/28 01:31:22;;;;;;;;;;;;;;;;;;5055179;28;19962;-54
2023/05/28 01:33:47;;;;;;;;;;;;;;;;;;5055231;28;19952;-49
2023/05/28 01:36:13;;;;;;;;;;;;;;;;;;5055212;28;19905;-49
2023/05/28 01:38:39;;;;;;;;;;;;;;;;;;5054862;28;19909;-52
2023/05/28 01:41:05;;;;;;;;;;;;;;;;;;5055042;28;19916;-47
2023/05/28 01:43:31;;;;;;;;;;;;;;;;;;5054993;28;19920;-50
2023/05/28 01:45:57;;;;;;;;;;;;;;;;;;5054799;28;19913;-52
2023/05/28 01:48:23;;;;;;;;;;;;;;;;;;5055225;28;19911;-51
2023/05/28 01:50:49;;;;;;;;;;;;;;;;;;5054823;28;20399;-52
2023/05/28 01:53:14;;;;;;;;;;;;;;;;;;5055049;28;20241;-50
2023/05/28 01:55:40;;;;;;;;;;;;;;;;;;5055265;28;19999;-49
2023/05/28 01:58:08;;;;;;;;;;;;;;;;;;5054979;28;19950;-51
2023/05/28 02:00:34;;;;;;;;;;;;;;;;;;5054564;28;19957;-49
2023/05/28 02:03:00;;;;;;;;;;;;;;;;;;5054632;28;19913;-48
2023/05/28 02:05:25;;;;;;;;;;;;;;;;;;5054414;28;19909;-51
2023/05/28 02:07:53;;;;;;;;;;;;;;;;;;5054681;28;19912;-52
2023/05/28 02:10:19;;;;;;;;;;;;;;;;;;5054629;28;19909;-52
2023/05/28 02:12:45;;;;;;;;;;;;;;;;;;5053217;28;19911;-52
2023/05/28 02:15:12;;;;;;;;;;;;;;;;;;5054480;28;19905;-48
2023/05/28 02:17:38;;;;;;;;;;;;;;;;;;5054532;28;20002;-48
2023/05/28 02:20:04;;;;;;;;;;;;;;;;;;5053295;28;19944;-48
2023/05/28 02:22:29;;;;;;;;;;;;;;;;;;5054278;28;20332;-46
2023/05/28 02:24:55;;;;;;;;;;;;;;;;;;5054249;28;20007;-49
2023/05/28 02:27:22;;;;;;;;;;;;;;;;;;5054197;28;20277;-47
2023/05/28 02:29:48;;;;;;;;;;;;;;;;;;5052731;28;19912;-47
2023/05/28 02:32:13;;;;;;;;;;;;;;;;;;5054196;28;19904;-48
2023/05/28 02:34:39;;;;;;;;;;;;;;;;;;5054096;28;19909;-49
2023/05/28 02:37:06;;;;;;;;;;;;;;;;;;5054053;28;19905;-48
2023/05/28 02:39:31;;;;;;;;;;;;;;;;;;5053664;28;19912;-53
2023/05/28 02:41:57;;;;;;;;;;;;;;;;;;5054068;28;19908;-50
2023/05/28 02:44:23;;;;;;;;;;;;;;;;;;5053935;28;19959;-50
2023/05/28 02:46:49;;;;;;;;;;;;;;;;;;5054026;28;19909;-52
2023/05/28 02:49:15;;;;;;;;;;;;;;;;;;5053997;28;20331;-52
2023/05/28 02:51:41;;;;;;;;;;;;;;;;;;5054218;28;19987;-50
2023/05/28 02:54:07;;;;;;;;;;;;;;;;;;5053761;28;19908;-47
2023/05/28 02:56:32;;;;;;;;;;;;;;;;;;5052485;28;20003;-50
2023/05/28 02:58:58;;;;;;;;;;;;;;;;;;5053876;28;19916;-46
2023/05/28 03:01:26;;;;;;;;;;;;;;;;;;5053667;28;20425;-46
2023/05/28 03:03:51;;;;;;;;;;;;;;;;;;5053607;28;19909;-47
2023/05/28 03:06:17;;;;;;;;;;;;;;;;;;5053558;28;20422;-50
2023/05/28 03:08:43;;;;;;;;;;;;;;;;;;5052266;28;19909;-48
2023/05/28 03:11:09;;;;;;;;;;;;;;;;;;5053422;28;19990;-50
2023/05/28 03:13:35;;;;;;;;;;;;;;;;;;5053474;28;19905;-49
2023/05/28 03:16:01;;;;;;;;;;;;;;;;;;5052108;28;19905;-54
2023/05/28 03:18:27;;;;;;;;;;;;;;;;;;5053288;28;19987;-49
2023/05/28 03:20:53;;;;;;;;;;;;;;;;;;5053372;28;19998;-51
2023/05/28 03:23:19;;;;;;;;;;;;;;;;;;5053468;28;20401;-50
2023/05/28 03:25:45;;;;;;;;;;;;;;;;;;5053040;28;19954;-51
2023/05/28 03:28:11;;;;;;;;;;;;;;;;;;5053233;28;19958;-47
2023/05/28 03:30:37;;;;;;;;;;;;;;;;;;5053205;28;19905;-51
2023/05/28 03:33:03;;;;;;;;;;;;;;;;;;5053007;28;19958;-50
2023/05/28 03:35:28;;;;;;;;;;;;;;;;;;5053255;28;19999;-51
2023/05/28 03:37:54;;;;;;;;;;;;;;;;;;5053049;28;19908;-46
2023/05/28 03:40:20;;;;;;;;;;;;;;;;;;5052422;28;20039;-48
2023/05/28 03:42:48;;;;;;;;;;;;;;;;;;5053160;28;19954;-49
2023/05/28 03:45:14;;;;;;;;;;;;;;;;;;5052896;28;20119;-50
2023/05/28 03:47:40;;;;;;;;;;;;;;;;;;5052715;28;19987;-52
2023/05/28 03:50:06;;;;;;;;;;;;;;;;;;5052736;28;19904;-52
2023/05/28 03:52:32;;;;;;;;;;;;;;;;;;5052775;28;19904;-49
2023/05/28 03:54:58;;;;;;;;;;;;;;;;;;5052596;28;19904;-47
2023/05/28 03:57:24;;;;;;;10.37;4.53;;;;;;;;;;5051568;28;20881;-47
2023/05/28 03:59:50;;;;;;;8.18;3.85;;;;;;;;;;5052132;28;20100;-47
2023/05/28 04:02:16;;;;;;;6.88;3.58;;;;;;;;;;5050809;28;20112;-48
2023/05/28 04:04:42;;;;;;;9.55;3.45;;;;;;;;;;5052011;28;20028;-51
2023/05/28 04:07:08;;;;;;;7.10;3.75;;;;;;;;;;5051926;28;20029;-49
2023/05/28 04:09:34;;;;;;;11.73;3.63;;;;;;;;;;5051911;28;20078;-47
2023/05/28 04:12:00;;;;;;;9.95;3.78;;;;;;;;;;5052028;28;20024;-50
2023/05/28 04:14:26;;;;;;;8.20;4.05;;;;;;;;;;5051895;28;20028;-46
2023/05/28 04:16:53;;;;;;;12.93;4.40;;;;;;;;;;5052009;28;20021;-46
2023/05/28 04:19:19;;;;;;;7.32;3.85;;;;;;;;;;5051916;28;20126;-51
2023/05/28 04:21:45;;;;;;;7.82;3.70;;;;;;;;;;5051869;28;20082;-52
2023/05/28 04:24:11;;;;;;;9.02;4.30;;;;;;;;;;5051626;28;20457;-48
2023/05/28 04:26:37;;;;;;;8.80;3.60;;;;;;;;;;5051742;28;20461;-48
2023/05/28 04:29:03;;;;;;;10.63;3.97;;;;;;;;;;5051714;28;20036;-48
2023/05/28 04:31:29;;;;;;;9.35;4.13;;;;;;;;;;5051520;28;20421;-46
2023/05/28 04:33:55;;;;;;;10.13;3.75;;;;;;;;;;5051739;28;20131;-47
2023/05/28 04:36:28;;;;;;;9.35;4.30;;;;;;;;;;5051923;28;20040;-48
2023/05/28 04:38:56;;;;;;;10.40;4.10;;;;;;;;;;5050128;28;20033;-46
2023/05/28 04:41:22;;;;;;;8.77;3.70;;;;;;;;;;5051573;28;20370;-46
2023/05/28 04:43:48;;;;;;;8.10;3.47;;;;;;;;;;5051554;28;20032;-50
2023/05/28 04:46:14;;;;;;;6.80;4.45;;;;;;;;;;5051358;28;20029;-47
2023/05/28 04:48:40;;;;;;;7.53;3.75;;;;;;;;;;5051344;28;20025;-48
2023/05/28 04:51:06;;;;;;;8.63;4.00;;;;;;;;;;5051682;28;20105;-46
2023/05/28 04:53:33;;;;;;;7.40;3.72;;;;;;;;;;5053838;28;20025;-45
2023/05/28 04:55:59;;;;;;;7.72;3.70;;;;;;;;;;5055640;28;20033;-49
2023/05/28 04:58:25;;;;;;;6.13;3.65;;;;;;;;;;5054282;28;20079;-51
2023/05/28 05:00:52;;;;;;;8.50;3.63;;;;;;;;;;5055574;28;20064;-50
2023/05/28 05:03:18;;;;;;;7.93;4.03;;;;;;;;;;5055874;28;20115;-52
2023/05/28 05:05:44;;;;;;;6.78;3.90;;;;;;;;;;5055778;28;20517;-51
2023/05/28 05:08:13;;;;;;;6.85;3.70;;;;;;;;;;5055405;28;20139;-50
2023/05/28 05:10:39;;;;;;;8.95;4.18;;;;;;;;;;5055661;28;20079;-48
2023/05/28 05:13:05;;;;;;;7.40;4.28;;;;;;;;;;5055431;28;20029;-46
2023/05/28 05:15:32;;;;;;;5.93;3.40;;;;;;;;;;5055402;28;20048;-50
2023/05/28 05:17:58;;;;;;;8.43;3.83;;;;;;;;;;5055319;28;20112;-46
2023/05/28 05:20:24;;;;;;;7.40;3.50;;;;;;;;;;5055163;28;20454;-46
2023/05/28 05:22:50;;;;;;;8.13;4.22;;;;;;;;;;5055020;28;20025;-50
2023/05/28 05:25:16;;;;;;;10.70;4.00;;;;;;;;;;5055043;28;20021;-51
2023/05/28 05:27:42;;;;;;;6.78;3.60;;;;;;;;;;5055010;28;20032;-49
2023/05/28 05:30:08;;;;;;;8.45;3.88;;;;;;;;;;5053561;28;20032;-51
2023/05/28 05:32:34;;;;;;;7.95;4.00;;;;;;;;;;5054912;28;20035;-47
2023/05/28 05:35:00;;;;;;;;;;;;;;;;;;5055287;28;20501;-48
2023/05/28 05:37:26;;;;;;;;;;;;;;;;;;5055211;28;20007;-47
2023/05/28 05:39:52;;;;;;;;;;;;;;;;;;5055009;28;19992;-51
2023/05/28 05:42:18;;;;;;;;;;;;;;;;;;5055182;28;19915;-49
2023/05/28 05:44:43;;;;;;;;;;;;;;;;;;5055100;28;19908;-48
2023/05/28 05:47:09;;;;;;;;;;;;;;;;;;5055223;28;19948;-51
2023/05/28 05:49:35;;;;;;;;;;;;;;;;;;5055025;28;20349;-51
2023/05/28 05:52:01;;;;;;;;;;;;;;;;;;5054874;28;19905;-48
2023/05/28 05:54:27;;;;;;;;;;;;;;;;;;5054989;28;19915;-48
2023/05/28 05:56:53;;;;;;;;;;;;;;;;;;5053653;28;19905;-52
2023/05/28 05:59:18;;;;;;;;;;;;;;;;;;5054876;28;20331;-52
2023/05/28 06:01:45;;;;;;;;;;;;;;;;;;5053733;28;19918;-53
2023/05/28 06:04:10;;;;;;;;;;;;;;;;;;5054259;28;19908;-46
2023/05/28 06:06:38;;;;;;;;;;;;;;;;;;5054816;28;19905;-53
2023/05/28 06:09:04;;;;;;;;;;;;;;;;;;5054829;28;19904;-49
2023/05/28 06:11:30;;;;;;;;;;;;;;;;;;5054740;28;19905;-50
2023/05/28 06:13:56;;;;;;;;;;;;;;;;;;5054628;28;20338;-51
2023/05/28 06:16:22;;;;;;;;;;;;;;;;;;5054673;28;19951;-52
2023/05/28 06:18:48;;;;;;;;;;;;;;;;;;5054712;28;19905;-54
2023/05/28 06:21:13;;;;;;;;;;;;;;;;;;5054590;28;19957;-54
2023/05/28 06:23:39;;;;;;;;;;;;;;;;;;5054462;28;20362;-48
2023/05/28 06:26:05;;;;;;;;;;;;;;;;;;5054385;28;19909;-48
2023/05/28 06:28:31;;;;;;;;;;;;;;;;;;5054281;28;19961;-51
2023/05/28 06:30:57;;;;;;;;;;;;;;;;;;5053013;28;20281;-51
2023/05/28 06:33:23;;;;;;;;;;;;;;;;;;5054190;28;20269;-53
2023/05/28 06:35:49;;;;;;;;;;;;;;;;;;5054260;28;19913;-50
2023/05/28 06:38:15;;;;;;;;;;;;;;;;;;5054013;28;19905;-52
2023/05/28 06:40:41;;;;;;;;;;;;;;;;;;5053723;28;20285;-52
2023/05/28 06:43:07;;;;;;;;;;;;;;;;;;5054093;28;19916;-48
2023/05/28 06:45:33;;;;;;;;;;;;;;;;;;5053897;28;20015;-48
2023/05/28 06:47:59;;;;;;;;;;;;;;;;;;5053884;28;19932;-50
2023/05/28 06:50:25;;;;;;;;;;;;;;;;;;5053910;28;20389;-49
2023/05/28 06:52:51;;;;;;;;;;;;;;;;;;5053888;28;19908;-50
2023/05/28 06:55:17;;;;;;;;;;;;;;;;;;5053903;28;19905;-48
2023/05/28 06:57:44;;;;;;;;;;;;;;;;;;5053889;28;19904;-54
2023/05/28 07:00:19;;;;;;;;;;;;;;;;;;5053677;28;19944;-49
2023/05/28 07:02:45;;;;;;;;;;;;;;;;;;5053661;28;19916;-53
2023/05/28 07:05:12;;;;;;;;;;;;;;;;;;5053633;28;20372;-53
2023/05/28 07:07:38;;;;;;;;;;;;;;;;;;5053692;28;20292;-52
2023/05/28 07:10:03;;;;;;;;;;;;;;;;;;5053498;28;19920;-53
2023/05/28 07:12:29;;;;;;;;;;;;;;;;;;5053495;28;19909;-49
2023/05/28 07:14:55;;;;;;;;;;;;;;;;;;5052505;28;20422;-50
2023/05/28 07:17:21;;;;;;;;;;;;;;;;;;5053693;28;19909;-51
2023/05/28 07:19:47;;;;;;;;;;;;;;;;;;5053510;28;19904;-46
2023/05/28 07:22:13;;;;;;;;;;;;;;;;;;5053326;28;19905;-49
2023/05/28 07:24:39;;;;;;;;;;;;;;;;;;5053179;28;19913;-49
2023/05/28 07:27:06;;;;;;;;;;;;;;;;;;5053043;28;20286;-52
2023/05/28 07:29:31;;;;;;;;;;;;;;;;;;5053160;28;20356;-50
2023/05/28 07:31:57;;;;;;;;;;;;;;;;;;5053138;28;20007;-52
2023/05/28 07:34:23;;;;;;;;;;;;;;;;;;5052931;28;20353;-52
2023/05/28 07:36:49;;;;;;;;;;;;;;;;;;5051705;28;19940;-52
2023/05/28 07:39:15;;;;;;;;;;;;;;;;;;5052693;28;19917;-53
2023/05/28 07:41:41;;;;;;;;;;;;;;;;;;5052871;28;20349;-55
2023/05/28 07:44:07;;;;;;;;;;;;;;;;;;5052840;28;20023;-47
2023/05/28 07:46:33;;;;;;;;;;;;;;;;;;5052754;28;19909;-47
2023/05/28 07:48:59;;;;;;;;;;;;;;;;;;5052832;28;19905;-50
2023/05/28 07:51:26;;;;;;;;;;;;;;;;;;5051496;28;19905;-52
2023/05/28 07:53:52;;;;;;;;;;;;;;;;;;5052882;28;19971;-50
2023/05/28 07:56:18;;;;;;;;;;;;;;;;;;5052460;28;20364;-50
2023/05/28 07:58:44;;;;;;;;;;;;;;;;;;5052546;28;19912;-53
2023/05/28 08:01:10;;;;;;;;;;;;;;;;;;5051423;28;19912;-48
2023/05/28 08:03:36;;;;;;;;;;;;;;;;;;5052351;28;20319;-50
2023/05/28 08:06:02;;;;;;;;;;;;;;;;;;5052280;28;19909;-52
2023/05/28 08:08:28;;;;;;;;;;;;;;;;;;5052425;28;19996;-50
2023/05/28 08:10:54;;;;;;;;;;;;;;;;;;5052471;28;19905;-49
2023/05/28 08:13:20;;;;;;;;;;;;;;;;;;5052435;28;20684;-49
2023/05/28 08:15:46;;;;;;;;;;;;;;;;;;5052456;28;20243;-47
2023/05/28 08:18:12;;;;;;;;;;;;;;;;;;5052353;28;19904;-49
2023/05/28 08:20:39;;;;;;;;;;;;;;;;;;5052314;28;20364;-51
2023/05/28 08:23:04;;;;;;;;;;;;;;;;;;5052096;28;19904;-48
2023/05/28 08:25:30;;;;;;;;;;;;;;;;;;5052104;28;19909;-52
2023/05/28 08:27:56;;;;;;;;;;;;;;;;;;5052418;28;19928;-51
2023/05/28 08:30:22;;;;;;;;;;;;;;;;;;5052233;28;19904;-51
2023/05/28 08:32:48;;;;;;;;;;;;;;;;;;5050947;28;19905;-52
2023/05/28 08:35:14;;;;;;;;;;;;;;;;;;5052139;28;19918;-49
2023/05/28 08:37:40;;;;;;;;;;;;;;;;;;5051996;28;19922;-50
2023/05/28 08:40:08;;;;;;;;;;;;;;;;;;5051815;28;19987;-49
2023/05/28 08:42:34;;;;;;;;;;;;;;;;;;5052182;28;19935;-50
2023/05/28 08:45:00;;;;;;;;;;;;;;;;;;5051916;28;19967;-52
2023/05/28 08:47:26;;;;;;;;;;;;;;;;;;5052006;28;19913;-47
2023/05/28 08:49:55;;;;;;;;;;;;;;;;;;5051857;28;19905;-50
2023/05/28 08:52:21;;;;;;;;;;;;;;;;;;5051888;28;19952;-51
2023/05/28 08:54:46;;;;;;;;;;;;;;;;;;5051808;28;20340;-52
2023/05/28 08:57:12;;;;;;;;;;;;;;;;;;5051797;28;19904;-47
2023/05/28 08:59:38;;;;;;;;;;;;;;;;;;5051789;28;19912;-48
2023/05/28 09:02:04;;;;;;;;;;;;;;;;;;5051744;28;20350;-50
2023/05/28 09:04:30;;;;;;;;;;;;;;;;;;5050324;28;19909;-50
2023/05/28 09:06:56;;;;;;;;;;;;;;;;;;5051774;28;19904;-48
2023/05/28 09:09:22;;;;;;;;;;;;;;;;;;5051760;28;19908;-55
2023/05/28 09:11:48;;;;;;;;;;;;;;;;;;5050534;28;19916;-48
2023/05/28 09:14:14;;;;;;;;;;;;;;;;;;5052002;28;19904;-49
2023/05/28 09:16:40;;;;;;;;;;;;;;;;;;5051774;28;19919;-51
2023/05/28 09:19:06;;;;;;;;;;;;;;;;;;5051667;28;20365;-53
2023/05/28 09:21:32;;;;;;;;;;;;;;;;;;5051589;28;20357;-50
2023/05/28 09:23:58;;;;;;;;;;;;;;;;;;5051684;28;19900;-52
2023/05/28 09:26:27;;;;;;;;;;;;;;;;;;5051624;28;19915;-48
2023/05/28 09:28:53;;;;;;;;;;;;;;;;;;5051564;28;19918;-52
2023/05/28 09:31:19;;;;;;;;;;;;;;;;;;5051433;28;20346;-53
2023/05/28 09:33:45;;;;;;;;;;;;;;;;;;5051374;28;19909;-51
2023/05/28 09:36:11;;;;;;;;;;;;;;;;;;5051395;28;19905;-52
2023/05/28 09:38:38;;;;;;;;;;;;;;;;;;5053197;28;19931;-47
2023/05/28 09:41:04;;;;;;;;;;;;;;;;;;5055028;28;19917;-49
2023/05/28 09:43:29;;;;;;;;;;;;;;;;;;5055329;28;19915;-49
2023/05/28 09:45:55;;;;;;;;;;;;;;;;;;5055114;28;20354;-49
2023/05/28 09:48:21;;;;;;;;;;;;;;;;;;5054330;28;19944;-47
2023/05/28 09:50:47;;;;;;;;;;;;;;;;;;5055080;28;20277;-51
2023/05/28 09:53:13;;;;;;;;;;;;;;;;;;5055009;28;19936;-49
2023/05/28 09:55:39;;;;;;;;;;;;;;;;;;5054781;28;19908;-49
2023/05/28 09:58:05;;;;;;;;;;;;;;;;;;5054889;28;20393;-49
2023/05/28 10:00:31;;;;;;;;;;;;;;;;;;5054885;28;20273;-47
2023/05/28 10:02:57;;;;;;;;;;;;;;;;;;5054981;28;19911;-50
2023/05/28 10:05:22;;;;;;;;;;;;;;;;;;5054746;28;19908;-49
2023/05/28 10:07:48;;;;;;;;;;;;;;;;;;5054823;28;19909;-53
2023/05/28 10:10:14;;;;;;;;;;;;;;;;;;5054867;28;20613;-48
2023/05/28 10:12:40;;;;;;;;;;;;;;;;;;5054818;28;20357;-50
2023/05/28 10:15:06;;;;;;;;;;;;;;;;;;5054643;28;19905;-51
2023/05/28 10:17:32;;;;;;;;;;;;;;;;;;5054298;28;19905;-52
2023/05/28 10:19:58;;;;;;;;;;;;;;;;;;5054521;28;19911;-49
2023/05/28 10:22:24;;;;;;;;;;;;;;;;;;5054421;28;19905;-52
2023/05/28 10:24:50;;;;;;;;;;;;;;;;;;5054276;28;19916;-51
2023/05/28 10:27:16;;;;;;;;;;;;;;;;;;5054191;28;19905;-51
2023/05/28 10:29:42;;;;;;;;;;;;;;;;;;5054218;28;19905;-51
2023/05/28 10:32:08;;;;;;;;;;;;;;;;;;5054267;28;20067;-51
2023/05/28 10:34:34;;;;;;;;;;;;;;;;;;5052855;28;20380;-45
2023/05/28 10:36:59;;;;;;;;;;;;;;;;;;5054339;28;19915;-48
2023/05/28 10:39:25;;;;;;;;;;;;;;;;;;5053976;28;19912;-49
2023/05/28 10:41:51;;;;;;;;;;;;;;;;;;5054077;28;19923;-48
2023/05/28 10:44:18;;;;;;;;;;;;;;;;;;5053887;28;19958;-50
2023/05/28 10:46:44;;;;;;;;;;;;;;;;;;5053972;28;19908;-48
2023/05/28 10:49:10;;;;;;;;;;;;;;;;;;5054095;28;19983;-51
2023/05/28 10:51:36;;;;;;;;;;;;;;;;;;5053633;28;19908;-49
2023/05/28 10:54:02;;;;;;;;;;;;;;;;;;5053913;28;19905;-49
2023/05/28 10:56:28;;;;;;;;;;;;;;;;;;5053828;28;19905;-49
2023/05/28 10:58:53;;;;;;;;;;;;;;;;;;5053853;28;20413;-48
2023/05/28 11:01:20;;;;;;;;;;;;;;;;;;5053877;28;19909;-51
2023/05/28 11:03:46;;;;;;;;;;;;;;;;;;5053775;28;19905;-48
2023/05/28 11:06:12;;;;;;;;;;;;;;;;;;5053580;28;19916;-48
2023/05/28 11:08:38;;;;;;;;;;;;;;;;;;5053424;28;19974;-51
2023/05/28 11:11:04;;;;;;;;;;;;;;;;;;5053306;28;19980;-48
2023/05/28 11:13:30;;;;;;;;;;;;;;;;;;5053180;28;19908;-52
2023/05/28 11:15:56;;;;;;;;;;;;;;;;;;5053332;28;19959;-48
2023/05/28 11:18:22;;;;;;;;;;;;;;;;;;5053202;28;19904;-52
2023/05/28 11:20:48;;;;;;;;;;;;;;;;;;5053086;28;20421;-47
2023/05/28 11:23:14;;;;;;;;;;;;;;;;;;5052941;28;19958;-50
2023/05/28 11:25:40;;;;;;;;;;;;;;;;;;5052393;28;19961;-49
2023/05/28 11:28:06;;;;;;;;;;;;;;;;;;5051690;28;19911;-52
2023/05/28 11:30:32;;;;;;;;;;;;;;;;;;5052773;28;20333;-51
2023/05/28 11:32:58;;;;;;;;;;;;;;;;;;5052737;28;19982;-49
2023/05/28 11:35:23;;;;;;;;;;;;;;;;;;5052764;28;20316;-50
2023/05/28 11:37:49;;;;;;;;;;;;;;;;;;5052763;28;19908;-52
2023/05/28 11:40:16;;;;;;;;;;;;;;;;;;5052272;28;19913;-51
2023/05/28 11:42:42;;;;;;;;;;;;;;;;;;5051517;28;19909;-52
2023/05/28 11:45:07;;;;;;;;;;;;;;;;;;5052682;28;20254;-52
2023/05/28 11:47:35;;;;;;;;;;;;;;;;;;5052622;28;20361;-52
2023/05/28 11:50:00;;;;;;;;;;;;;;;;;;5052464;28;19905;-53
2023/05/28 11:52:26;;;;;;;;;;;;;;;;;;5052790;28;20274;-52
2023/05/28 11:54:52;;;;;;;;;;;;;;;;;;5051219;28;19904;-52
2023/05/28 11:57:18;;;;;;;;;;;;;;;;;;5052219;28;19974;-52
2023/05/28 11:59:44;;;;;;;;;;;;;;;;;;5052300;28;19912;-51
2023/05/28 12:02:10;;;;;;;;;;;;;;;;;;5050611;28;20335;-49
2023/05/28 12:04:36;;;;;;;;;;;;;;;;;;5052138;28;19909;-46
2023/05/28 12:07:02;;;;;;;;;;;;;;;;;;5052196;28;19912;-47
2023/05/28 12:09:28;;;;;;;;;;;;;;;;;;5052408;28;19905;-48
2023/05/28 12:11:54;;;;;;;;;;;;;;;;;;5052192;28;19912;-48
2023/05/28 12:14:20;;;;;;;;;;;;;;;;;;5052238;28;19908;-50
2023/05/28 12:16:47;;;;;;;;;;;;;;;;;;5052309;28;19955;-50
2023/05/28 12:19:15;;;;;;;;;;;;;;;;;;5052079;28;19940;-51
2023/05/28 12:21:41;;;;;;;;;;;;;;;;;;5052080;28;19911;-52
2023/05/28 12:24:07;;;;;;;;;;;;;;;;;;5052080;28;19905;-46
2023/05/28 12:26:33;;;;;;;;;;;;;;;;;;5051918;28;20369;-47
2023/05/28 12:28:59;;;;;;;;;;;;;;;;;;5050897;28;19905;-50
2023/05/28 12:31:24;;;;;;;;;;;;;;;;;;5050822;28;20369;-47
2023/05/28 12:33:50;;;;;;;;;;;;;;;;;;5051799;28;19995;-50
2023/05/28 12:36:16;;;;;;;;;;;;;;;;;;5050802;28;19905;-50
2023/05/28 12:38:42;;;;;;;;;;;;;;;;;;5051899;28;19944;-51
2023/05/28 12:41:08;;;;;;;;;;;;;;;;;;5051789;28;20018;-51
2023/05/28 12:43:34;;;;;;;;;;;;;;;;;;5051880;28;19905;-52
2023/05/28 12:46:00;;;;;;;;;;;;;;;;;;5051796;28;20358;-50
2023/05/28 12:48:26;;;;;;;;;;;;;;;;;;5050806;28;19908;-48
2023/05/28 12:50:52;;;;;;;;;;;;;;;;;;5051823;28;20368;-51
2023/05/28 12:53:18;;;;;;;;;;;;;;;;;;5051815;28;19904;-48
2023/05/28 12:55:44;;;;;;;;;;;;;;;;;;5051626;28;19928;-49
2023/05/28 12:58:10;;;;;;;;;;;;;;;;;;5051808;28;20318;-51
2023/05/28 13:00:36;;;;;;;;;;;;;;;;;;5051742;28;19904;-51
2023/05/28 13:03:02;;;;;;;;;;;;;;;;;;5051673;28;19962;-46
2023/05/28 13:05:28;;;;;;;;;;;;;;;;;;5050372;28;19909;-48
2023/05/28 13:07:54;;;;;;;;;;;;;;;;;;5051583;28;19909;-49
2023/05/28 13:10:20;;;;;;;;;;;;;;;;;;5051603;28;19908;-48
2023/05/28 13:12:46;;;;;;;;;;;;;;;;;;5052319;28;19904;-48
2023/05/28 13:15:12;;;;;;;;;;;;;;;;;;5055762;28;19905;-48
2023/05/28 13:17:38;;;;;;;;;;;;;;;;;;5055490;28;19912;-47
2023/05/28 13:20:07;;;;;;;;;;;;;;;;;;5055700;28;19904;-49
2023/05/28 13:22:35;;;;;;;;;;;;;;;;;;5055409;28;19904;-51
2023/05/28 13:25:02;;;;;;;;;;;;;;;;;;5055167;28;19908;-49
2023/05/28 13:27:28;;;;;;;;;;;;;;;;;;5055357;28;20261;-51
2023/05/28 13:29:54;;;;;;;;;;;;;;;;;;5055317;28;19901;-49
2023/05/28 13:32:20;;;;;;;;;;;;;;;;;;5055189;28;20323;-50
2023/05/28 13:34:46;;;;;;;;;;;;;;;;;;5055165;28;19901;-50
2023/05/28 13:37:12;;;;;;;;;;;;;;;;;;5055000;28;19905;-47
2023/05/28 13:39:38;;;;;;;;;;;;;;;;;;5054953;28;19955;-47
2023/05/28 13:42:04;;;;;;;;;;;;;;;;;;5054888;28;20381;-50
2023/05/28 13:44:30;;;;;;;;;;;;;;;;;;5054938;28;19909;-47
2023/05/28 13:46:57;;;;;;;;;;;;;;;;;;5054813;28;19959;-50
2023/05/28 13:49:23;;;;;;;;;;;;;;;;;;5054869;28;20353;-49
2023/05/28 13:51:50;;;;;;;;;;;;;;;;;;5054947;28;20003;-51
2023/05/28 13:54:16;;;;;;;;;;;;;;;;;;5054722;28;20021;-55
2023/05/28 13:56:42;;;;;;;;;;;;;;;;;;5055193;28;20509;-49
2023/05/28 13:59:08;;;;;;;;;;;;;;;;;;5055084;28;20034;-50
2023/05/28 14:01:34;;;;;;;;;;;;;;;;;;5054885;28;19912;-53
2023/05/28 14:04:00;;;;;;;;;;;;;;;;;;5054419;28;19908;-47
2023/05/28 14:06:26;;;;;;;;;;;;;;;;;;5054532;28;19962;-51
2023/05/28 14:08:52;;;;;;;;;;;;;;;;;;5054579;28;19904;-51
2023/05/28 14:11:18;;;;;;;;;;;;;;;;;;5054600;28;20046;-51
2023/05/28 14:13:43;;;;;;;;;;;;;;;;;;5054412;28;19904;-48
2023/05/28 14:16:09;;;;;;;;;;;;;;;;;;5054308;28;20346;-48
2023/05/28 14:18:35;;;;;;;;;;;;;;;;;;5054327;28;19904;-52
2023/05/28 14:21:01;;;;;;;;;;;;;;;;;;5054268;28;20266;-53
2023/05/28 14:23:27;;;;;;;;;;;;;;;;;;5053892;28;19912;-52
2023/05/28 14:25:53;;;;;;;;;;;;;;;;;;5054169;28;19924;-53
2023/05/28 14:28:19;;;;;;;;;;;;;;;;;;5054238;28;20501;-50
2023/05/28 14:30:47;;;;;;;;;;;;;;;;;;5054241;28;20357;-49
2023/05/28 14:33:13;;;;;;;;;;;;;;;;;;5054148;28;19905;-47
2023/05/28 14:35:39;;;;;;;;;;;;;;;;;;5054116;28;20377;-49
2023/05/28 14:38:05;;;;;;;;;;;;;;;;;;5054162;28;19908;-49
2023/05/28 14:40:31;;;;;;;;;;;;;;;;;;5053990;28;19917;-53
2023/05/28 14:42:57;;;;;;;;;;;;;;;;;;5052759;28;20003;-48
2023/05/28 14:45:23;;;;;;;;;;;;;;;;;;5053896;28;20456;-47
2023/05/28 14:47:48;;;;;;;;;;;;;;;;;;5053804;28;19904;-49
2023/05/28 14:50:14;;;;;;;;;;;;;;;;;;5053913;28;19915;-54
2023/05/28 14:52:41;;;;;;;;;;;;;;;;;;5054028;28;19909;-51
2023/05/28 14:55:08;;;;;;;;;;;;;;;;;;5053921;28;19995;-48
2023/05/28 14:57:36;;;;;;;;;;;;;;;;;;5053885;28;19948;-53
2023/05/28 15:00:04;;;;;;;;;;;;;;;;;;5053965;28;19919;-52
2023/05/28 15:02:30;;;;;;;;;;;;;;;;;;5053742;28;19913;-53
2023/05/28 15:04:56;;;;;;;;;;;;;;;;;;5052277;28;19921;-47
2023/05/28 15:07:22;;;;;;;;;;;;;;;;;;5053638;28;19905;-50
2023/05/28 15:09:48;;;;;;;;;;;;;;;;;;5053364;28;19908;-50
2023/05/28 15:12:14;;;;;;;;;;;;;;;;;;5053326;28;20349;-50
2023/05/28 15:14:40;;;;;;;;;;;;;;;;;;5053288;28;20353;-50
2023/05/28 15:17:06;;;;;;;;;;;;;;;;;;5053094;28;19905;-54
2023/05/28 15:19:32;;;;;;;;;;;;;;;;;;5053172;28;20395;-52
2023/05/28 15:21:57;;;;;;;;;;;;;;;;;;5053193;28;19904;-51
2023/05/28 15:24:23;;;;;;;;;;;;;;;;;;5053002;28;19932;-47
2023/05/28 15:26:49;;;;;;;;;;;;;;;;;;5053066;28;20007;-50
2023/05/28 15:29:15;;;;;;;;;;;;;;;;;;5052994;28;19920;-51
2023/05/28 15:31:41;;;;;;;;;;;;;;;;;;5051808;28;19960;-48
2023/05/28 15:34:07;;;;;;;;;;;;;;;;;;5052871;28;19905;-48
2023/05/28 15:36:33;;;;;;;;;;;;;;;;;;5052156;28;19999;-48
2023/05/28 15:38:59;;;;;;;;;;;;;;;;;;5052758;28;19958;-49
2023/05/28 15:41:25;;;;;;;;;;;;;;;;;;5052859;28;19916;-51
2023/05/28 15:43:53;;;;;;;;;;;;;;;;;;5052851;28;20003;-51
2023/05/28 15:46:18;;;;;;;;;;;;;;;;;;5052385;28;19915;-50
2023/05/28 15:48:44;;;;;;;;;;;;;;;;;;5052633;28;19904;-48
2023/05/28 15:51:10;;;;;;;;;;;;;;;;;;5052576;28;19995;-51
2023/05/28 15:53:36;;;;;;;;;;;;;;;;;;5051567;28;19916;-49
2023/05/28 15:56:02;;;;;;;;;;;;;;;;;;5052715;28;20437;-48
2023/05/28 15:58:28;;;;;;;;;;;;;;;;;;5052448;28;19912;-46
2023/05/28 16:00:54;;;;;;;;;;;;;;;;;;5052292;28;19948;-51
2023/05/28 16:03:20;;;;;;;;;;;;;;;;;;5052409;28;20439;-50
2023/05/28 16:05:46;;;;;;;;;;;;;;;;;;5050985;28;19909;-48
2023/05/28 16:08:12;;;;;;;39.33;13.30;;;;;;;;;;5051519;28;20385;-50
2023/05/28 16:10:38;;;;;;;29.23;11.15;;;;;;;;;;5051783;28;20268;-51
2023/05/28 16:13:10;;;;;;;27.60;10.43;;;;;;;;;;5051866;28;20025;-47
2023/05/28 16:15:36;;;;;;;32.10;10.90;;;;;;;;;;5051828;28;20021;-48
2023/05/28 16:18:03;;;;;;;27.73;11.07;;;;;;;;;;5051632;28;20048;-50
2023/05/28 16:20:29;;;;;;;23.55;10.35;;;;;;;;;;5050396;28;20108;-46